Las horas y fechas están en horario UTC
Sumar 1 hora en el horario de invierno y 2 en el de verano

Informes METAR cercanos

 

LEZL - Sevilla (civ/Mil, Spain
Distance from station: NNE 24km
Actualización: 24/06/2017 19:00
Despejado
Despejado
 Viento del N
Viento: N 11 km/h
Temperatura: 40°C
Rocío: 7°C
Humedad: 13%
Barómetro: 1012 hPa
Resumen: Despejado
Visibility: greater than 10 km
2017/06/24 17:00 LEZL 241700Z 35006KT 320V030 CAVOK 40/07 Q1012 NOSIG
LEMO - Moron (sp-Usafb), Spain
Distance from station: E 38km
Actualización: 24/06/2017 19:00
Despejado
Despejado
 Viento del N
Viento: N 19 km/h, Racha: 37 km/h
Temperatura: 40°C
Rocío: 8°C
Humedad: 14%
Barómetro: 1012 hPa
Resumen: Despejado
Visibility: greater than 10 km
2017/06/24 17:00 LEMO 241700Z 01010G20KT 330V050 CAVOK 40/08 Q1012 NOSIG
LEJR - Jerez (civ/Mil), Spain
Distance from station: S 53km
Actualización: 24/06/2017 19:00
Despejado
Despejado
 Viento del SSO
Viento: SSO 9 km/h
Temperatura: 41°C
Rocío: 10°C
Humedad: 15%
Barómetro: 1013 hPa
Resumen: Despejado
Visibility: greater than 10 km
2017/06/24 17:00 LEJR 241700Z 20005KT 110V280 CAVOK 41/10 Q1013
 
LERT - Rota Naval Stati, Spain
Distance from station: SSO 71km
Actualización: 24/06/2017 19:00
Despejado
Despejado
 Viento del NO
Viento: NO 28 km/h
Temperatura: 36°C
Rocío: 16°C
Humedad: 30%
Barómetro: 1013 hPa
Resumen: Despejado
Visibility: greater than 10 km
2017/06/24 17:00 LERT 241700Z 31015KT 280V350 CAVOK 36/16 Q1013 NOSIG
LEBA - Cordoba Airport, Spain
Distance from station: ENE 128km
Actualización: 24/06/2017 19:00
Despejado
Despejado
 Viento del varies
Viento: varies 2 km/h
Temperatura: 39°C
Rocío: 7°C
Humedad: 14%
Barómetro: 1013 hPa
Clouds: Despejado
Visibility: 10 km
2017/06/24 17:00 LEBA 241700Z AUTO VRB01KT 9999 NCD 39/07 Q1013
LXGB - Gibraltar (civ/M, Gibraltar
Distance from station: SSE 137km
Actualización: 24/06/2017 18:50
Nearby fog, Few clouds
Nearby fog, Few clouds
 Viento del E
Viento: E 15 km/h
Temperatura: 23°C
Rocío: 20°C
Humedad: 83%
Barómetro: 1015 hPa
Resumen: Nearby Fog
Clouds: Few Clouds
Visibility: 8 km
Cloud details: Few Clouds 7620 m
2017/06/24 16:50 LXGB 241650Z 08008KT 8000 2000E VCFG FEW250 23/20 Q1015 TEMPO 4000
 
LEMG - Malaga (civ/Mil), Spain
Distance from station: ESE 150km
Actualización: 24/06/2017 19:00
Despejado
Despejado
 Viento del ESE
Viento: ESE 6 km/h
Temperatura: 32°C
Rocío: 10°C
Humedad: 26%
Barómetro: 1015 hPa
Resumen: Despejado
Visibility: greater than 10 km
2017/06/24 17:00 LEMG 241700Z 12003KT 090V160 CAVOK 32/10 Q1015 NOSIG
GMTT - Tangier/Boukhalf, Morocco
Distance from station: S 169km
Actualización: 24/06/2017 19:00
Despejado
Despejado
 Viento del ENE
Viento: ENE 37 km/h
Temperatura: 32°C
Rocío: 12°C
Humedad: 29%
Barómetro: 1012 hPa
Resumen: Despejado
Visibility: greater than 10 km
2017/06/24 17:00 GMTT 241700Z 07020KT CAVOK 32/12 Q1012 NOSIG
LPFR - Faro, Portugal
Distance from station: O 172km
Actualización: 24/06/2017 19:00
Despejado
Despejado
 Viento del NNO
Viento: NNO 39 km/h
Temperatura: 33°C
Rocío: 10°C
Humedad: 24%
Barómetro: 1015 hPa
Resumen: Despejado
Visibility: greater than 10 km
2017/06/24 17:00 LPFR 241700Z 33021KT CAVOK 33/10 Q1015
 
LPBJ - Beja (por/Ger-Af, Portugal
Distance from station: ONO 192km
Actualización: 24/06/2017 19:00
Few Clouds
Few Clouds
 Viento del NO
Viento: NO 37 km/h, Racha: 56 km/h
Temperatura: 26°C
Rocío: 10°C
Humedad: 37%
Barómetro: 1020 hPa
Clouds: Few Clouds
Visibility: 10 km
Cloud details: Few Clouds 1067 m
2017/06/24 17:00 LPBJ 241700Z 31020G30KT 9999 FEW035 26/10 Q1020
LEBZ - Talavera Ab/Bada, Spain
Distance from station: NNO 194km
Actualización: 24/06/2017 19:00
Despejado
Despejado
 Viento del ONO
Viento: ONO 24 km/h
Temperatura: 31°C
Rocío: 10°C
Humedad: 27%
Barómetro: 1018 hPa
Resumen: Despejado
Visibility: greater than 10 km
2017/06/24 17:00 LEBZ 241700Z 29013KT CAVOK 31/10 Q1018
LEMD - Madrid/Barajas, Spain
Distance from station: NE 415km
Actualización: 24/06/2017 19:00
Despejado
Despejado
 Viento del SO
Viento: SO 24 km/h
Temperatura: 36°C
Rocío: 6°C
Humedad: 16%
Barómetro: 1016 hPa
Resumen: Despejado
Visibility: greater than 10 km
2017/06/24 17:00 LEMD 241700Z 23013KT CAVOK 36/06 Q1016 NOSIG